createdAt,value
2022-12-05T00:03:23.238Z,19.5
2022-12-05T00:07:25.869Z,22.6
2022-12-05T00:09:27.159Z,21.2
2022-12-05T00:13:33.128Z,25.4
2022-12-05T00:15:34.497Z,18.1
2022-12-05T00:17:35.872Z,20.2
2022-12-05T00:19:37.153Z,19.5
2022-12-05T00:21:38.455Z,16.6
2022-12-05T00:23:39.775Z,19.8
2022-12-05T00:25:41.110Z,20.1
2022-12-05T00:27:45.809Z,17.5
2022-12-05T00:29:47.103Z,22.3
2022-12-05T00:31:48.566Z,20.4
2022-12-05T00:34:11.493Z,22.9
2022-12-05T00:36:12.830Z,22
2022-12-05T00:38:14.196Z,21.1
2022-12-05T00:40:18.828Z,17.4
2022-12-05T00:42:20.226Z,18.5
2022-12-05T00:44:21.554Z,16.7
2022-12-05T00:46:22.917Z,18.5
2022-12-05T00:48:24.255Z,20.4
2022-12-05T00:50:25.539Z,17.6
2022-12-05T00:52:26.820Z,18.8
2022-12-05T00:54:31.647Z,14.2
2022-12-05T00:56:33.007Z,14.2
2022-12-05T00:58:34.384Z,19.7
2022-12-05T01:00:35.677Z,22.5
2022-12-05T01:02:37.089Z,17.9
2022-12-05T01:04:38.464Z,8.5
2022-12-05T01:06:39.763Z,16.2
2022-12-05T01:08:44.368Z,13.3
2022-12-05T01:10:45.656Z,16.6
2022-12-05T01:12:48.563Z,19
2022-12-05T01:14:49.793Z,16.8
2022-12-05T01:24:59.724Z,16
2022-12-05T01:28:03.308Z,16.3
2022-12-05T01:30:04.725Z,13.5
2022-12-05T01:32:05.991Z,18.8
2022-12-05T01:34:07.300Z,20
2022-12-05T01:36:11.891Z,17.5
2022-12-05T01:38:13.182Z,21.5
2022-12-05T01:40:14.641Z,16.3
2022-12-05T01:42:15.861Z,19.4
2022-12-05T01:44:17.267Z,13.2
2022-12-05T01:46:18.623Z,20.6
2022-12-05T01:48:19.918Z,12.7
2022-12-05T01:50:24.710Z,18.5
2022-12-05T01:52:25.910Z,12.7
2022-12-05T01:54:27.227Z,16.1
2022-12-05T01:56:28.494Z,14.3
2022-12-05T01:58:29.789Z,19.6
2022-12-05T02:00:31.324Z,16.5
2022-12-05T02:02:32.852Z,11.6
2022-12-05T02:04:37.465Z,20.3
2022-12-05T02:06:38.792Z,13.8
2022-12-05T02:08:39.889Z,19.1
2022-12-05T02:10:41.309Z,16.6
2022-12-05T02:12:42.796Z,20.5
2022-12-05T02:14:43.967Z,17.8
2022-12-05T02:16:45.862Z,19
2022-12-05T02:18:50.399Z,21.2
2022-12-05T02:20:52.136Z,19.1
2022-12-05T02:22:52.999Z,14.3
2022-12-05T02:25:56.970Z,15.4
2022-12-05T02:27:57.975Z,12.6
2022-12-05T02:40:09.170Z,17.3
2022-12-05T02:44:11.776Z,10.2
2022-12-05T02:50:19.313Z,18.5
2022-12-05T02:52:20.715Z,19.1
2022-12-05T02:54:21.990Z,14.7
2022-12-05T02:56:23.322Z,17.6
2022-12-05T02:58:24.690Z,17.9
2022-12-05T03:00:29.527Z,17.6
2022-12-05T03:02:30.683Z,17.4
2022-12-05T03:04:32.193Z,14.8
2022-12-05T03:08:34.691Z,16.8
2022-12-05T03:10:35.993Z,17.3
2022-12-05T03:12:37.376Z,17.9
2022-12-05T03:14:42.038Z,17.4
2022-12-05T03:16:43.347Z,13.3
2022-12-05T03:18:44.625Z,15.5
2022-12-05T03:19:46.909Z,13.2
2022-12-05T03:21:48.226Z,18.6
2022-12-05T03:23:49.507Z,18.6
2022-12-05T03:25:50.842Z,14.8
2022-12-05T03:29:57.177Z,10.8
2022-12-05T03:31:58.086Z,15.7
2022-12-05T03:33:59.412Z,18.1
2022-12-05T03:36:00.700Z,14.9
2022-12-05T03:42:07.951Z,16.2
2022-12-05T03:44:09.278Z,18.3
2022-12-05T03:46:10.672Z,18.2
2022-12-05T03:48:11.915Z,17
2022-12-05T03:50:13.274Z,14.6
2022-12-05T03:56:20.654Z,19
2022-12-05T03:58:21.954Z,17.3
2022-12-05T04:02:24.518Z,16.3
2022-12-05T04:04:25.838Z,15.4
2022-12-05T04:06:27.160Z,9
2022-12-05T04:08:28.451Z,13.3
2022-12-05T04:10:33.054Z,17.4
2022-12-05T04:12:34.376Z,17.8
2022-12-05T04:14:35.681Z,14.4
2022-12-05T04:16:58.868Z,16.3
2022-12-05T04:19:00.225Z,17
2022-12-05T04:21:01.543Z,15.9
2022-12-05T04:23:06.226Z,18.2
2022-12-05T04:27:08.870Z,14.8
2022-12-05T04:29:10.182Z,6.3
2022-12-05T04:31:11.499Z,16.8
2022-12-05T04:33:12.788Z,16.2
2022-12-05T04:35:14.099Z,16.2
2022-12-05T04:37:18.710Z,10.4
2022-12-05T04:43:22.734Z,14.7
2022-12-05T04:49:26.652Z,17.4
2022-12-05T04:51:31.266Z,18
2022-12-05T04:57:35.388Z,11.5
2022-12-05T04:59:36.732Z,13.8
2022-12-05T05:01:38.209Z,9.3
2022-12-05T05:03:39.420Z,12.7
2022-12-05T05:05:44.060Z,16.9
2022-12-05T05:07:45.444Z,18.1
2022-12-05T05:09:46.668Z,15.5
2022-12-05T05:14:51.620Z,17.1
2022-12-05T05:16:52.935Z,18.3
2022-12-05T05:18:57.629Z,15.2
2022-12-05T05:20:58.917Z,20.1
2022-12-05T05:23:00.248Z,19
2022-12-05T05:25:01.590Z,11.9
2022-12-05T05:27:02.889Z,19
2022-12-05T05:29:04.204Z,14
2022-12-05T05:31:05.589Z,13.1
2022-12-05T05:33:10.243Z,12.8
2022-12-05T05:35:11.560Z,12
2022-12-05T05:37:12.869Z,16.1
2022-12-05T05:39:14.161Z,14.9
2022-12-05T05:41:15.499Z,16.5
2022-12-05T05:43:16.796Z,14.8
2022-12-05T05:45:18.143Z,15.7
2022-12-05T05:47:22.771Z,16.6
2022-12-05T05:49:24.051Z,16.5
2022-12-05T05:53:26.716Z,16
2022-12-05T05:55:28.051Z,17.7
2022-12-05T05:57:29.414Z,13
2022-12-05T05:59:30.784Z,13.9
2022-12-05T06:01:35.497Z,16.4
2022-12-05T06:03:36.904Z,13.8
2022-12-05T06:05:38.147Z,16.9
2022-12-05T06:16:50.579Z,16
2022-12-05T06:22:54.442Z,16.6
2022-12-05T06:26:57.189Z,13.6
2022-12-05T06:33:04.523Z,11.4
2022-12-05T06:35:05.868Z,14.3
2022-12-05T06:37:07.190Z,17.4
2022-12-05T06:39:08.496Z,16.7
2022-12-05T06:41:09.840Z,15.5
2022-12-05T06:43:14.418Z,16.8
2022-12-05T06:45:15.771Z,14
2022-12-05T06:47:17.115Z,15.7
2022-12-05T06:49:18.493Z,13.8
2022-12-05T06:51:19.811Z,14.2
2022-12-05T06:53:21.143Z,14.2
2022-12-05T06:55:22.441Z,10.9
2022-12-05T06:57:27.078Z,17.8
2022-12-05T06:59:28.405Z,13
2022-12-05T07:01:29.817Z,16.9
2022-12-05T07:02:33.845Z,17.8
2022-12-05T07:04:35.092Z,14.4
2022-12-05T07:06:36.439Z,3.5
2022-12-05T07:08:37.857Z,15.5
2022-12-05T07:10:42.546Z,17.1
2022-12-05T07:12:43.898Z,6
2022-12-05T07:14:48.742Z,15.9
2022-12-05T07:16:46.567Z,16.4
2022-12-05T07:18:47.876Z,16.9
2022-12-05T07:21:11.245Z,14.3
2022-12-05T07:22:50.553Z,15.7
2022-12-05T07:26:56.561Z,16
2022-12-05T07:28:57.872Z,10.1
2022-12-05T07:30:59.199Z,13.8
2022-12-05T07:33:00.512Z,13.6
2022-12-05T07:35:01.900Z,8
2022-12-05T07:37:03.269Z,6.5
2022-12-05T07:39:07.903Z,11.9
2022-12-05T07:41:13.330Z,12.1
2022-12-05T07:43:10.639Z,12.2
2022-12-05T07:45:11.975Z,13.8
2022-12-05T07:47:13.450Z,16.6
2022-12-05T07:49:14.692Z,11.5
2022-12-05T07:53:20.617Z,16.8
2022-12-05T07:55:21.922Z,16.1
2022-12-05T07:57:23.242Z,12.7
2022-12-05T07:59:46.538Z,18.9
2022-12-05T08:01:47.898Z,15.1
2022-12-05T08:03:49.156Z,14.1
2022-12-05T08:09:56.763Z,15.9
2022-12-05T08:11:57.794Z,17.1
2022-12-05T08:13:59.091Z,13.7
2022-12-05T08:16:00.423Z,14.2
2022-12-05T08:18:01.747Z,19.6
2022-12-05T08:20:06.406Z,20
2022-12-05T08:22:07.828Z,16.2
2022-12-05T08:24:09.132Z,18.1
2022-12-05T08:26:10.438Z,20.3
2022-12-05T08:28:11.770Z,18.5
2022-12-05T08:30:13.092Z,22.2
2022-12-05T08:32:14.402Z,13.5
2022-12-05T08:34:19.063Z,16.7
2022-12-05T08:36:20.358Z,19.3
2022-12-05T08:38:21.674Z,18.9
2022-12-05T08:40:22.992Z,16.7
2022-12-05T08:42:24.334Z,20.2
2022-12-05T08:46:27.053Z,15.5
2022-12-05T08:50:32.915Z,21
2022-12-05T08:53:42.491Z,20.6
2022-12-05T08:55:37.890Z,19.2
2022-12-05T08:57:39.221Z,15.8
2022-12-05T08:59:40.554Z,15.4
2022-12-05T09:01:45.292Z,23
2022-12-05T09:03:48.304Z,19.8
2022-12-05T09:05:47.947Z,18.5
2022-12-05T09:07:49.295Z,17.3
2022-12-05T09:09:50.576Z,20.1
2022-12-05T09:11:51.919Z,18.9
2022-12-05T09:13:53.261Z,18.9
2022-12-05T09:15:58.048Z,23.7
2022-12-05T09:17:59.408Z,23.4
2022-12-05T09:20:00.723Z,21.2
2022-12-05T09:22:02.052Z,19.2
2022-12-05T09:24:03.368Z,22.7
2022-12-05T09:26:04.740Z,16.7
2022-12-05T09:28:06.130Z,20
2022-12-05T09:30:10.862Z,14.5
2022-12-05T09:32:12.182Z,17
2022-12-05T09:34:13.533Z,10.6
2022-12-05T09:36:14.828Z,15
2022-12-05T09:38:16.182Z,17
2022-12-05T09:40:17.591Z,18.2
2022-12-05T09:42:18.931Z,17
2022-12-05T09:44:23.557Z,17.2
2022-12-05T09:46:24.946Z,14.9
2022-12-05T09:48:26.216Z,13.1
2022-12-05T09:53:31.224Z,15.6
2022-12-05T09:55:32.530Z,10.2
2022-12-05T09:57:37.264Z,17.7
2022-12-05T09:59:38.615Z,11.7
2022-12-05T10:01:39.984Z,17
2022-12-05T10:03:41.238Z,9.2
2022-12-05T10:05:42.562Z,16.4
2022-12-05T10:07:43.975Z,15.8
2022-12-05T10:09:45.217Z,14.2
2022-12-05T10:11:49.858Z,15.4
2022-12-05T10:13:51.164Z,14.8
2022-12-05T10:15:57.082Z,14.5
2022-12-05T10:17:53.844Z,14.2
2022-12-05T10:19:55.189Z,12
2022-12-05T10:21:56.576Z,17.7
2022-12-05T10:23:58.781Z,14
2022-12-05T10:26:02.522Z,14.5
2022-12-05T10:28:03.863Z,17.3
2022-12-05T10:30:05.203Z,12.2
2022-12-05T10:32:06.538Z,16.2
2022-12-05T10:34:07.831Z,14.9
2022-12-05T10:36:09.163Z,17.1
2022-12-05T10:38:10.510Z,14
2022-12-05T10:40:15.131Z,14.6
2022-12-05T10:42:16.599Z,12.6
2022-12-05T10:47:21.530Z,15.3
2022-12-05T10:49:22.838Z,17.7
2022-12-05T10:57:31.434Z,15.1
2022-12-05T10:59:32.769Z,14.3
2022-12-05T11:03:35.430Z,15.2
2022-12-05T11:05:36.837Z,14
2022-12-05T11:07:41.487Z,15
2022-12-05T11:11:44.054Z,15.5
2022-12-05T11:13:45.349Z,14.4
2022-12-05T11:15:50.750Z,15
2022-12-05T11:17:48.061Z,16.3
2022-12-05T11:25:56.852Z,13.4
2022-12-05T11:28:01.150Z,11.7
2022-12-05T11:29:59.548Z,11.9
2022-12-05T11:32:00.871Z,10.9
2022-12-05T11:34:02.475Z,9.7
2022-12-05T11:36:06.788Z,8.5
2022-12-05T11:38:08.102Z,6.1
2022-12-05T11:40:09.427Z,6
2022-12-05T11:42:30.303Z,6.3
2022-12-05T11:44:31.660Z,3.5
2022-12-05T11:46:33.019Z,2.9
2022-12-05T11:48:37.613Z,2.1
2022-12-05T11:50:38.946Z,3.1
2022-12-05T11:52:40.899Z,1.7
2022-12-05T11:55:04.390Z,1.6
2022-12-05T11:56:42.934Z,1.7
2022-12-05T11:58:44.240Z,0.5
2022-12-05T12:00:45.565Z,3.1
2022-12-05T12:02:50.271Z,2.9
2022-12-05T12:04:51.595Z,2.9
2022-12-05T12:06:52.976Z,1
2022-12-05T12:08:54.284Z,2.4
2022-12-05T12:10:55.597Z,2.5
2022-12-05T12:12:56.919Z,2.5
2022-12-05T12:14:58.646Z,1.2
2022-12-05T12:17:02.956Z,1.5
2022-12-05T12:19:04.225Z,2.5
2022-12-05T12:21:05.557Z,3.3
2022-12-05T12:23:06.905Z,1.3
2022-12-05T12:29:10.928Z,1.3
2022-12-05T12:36:20.601Z,1.9
2022-12-05T12:38:21.957Z,1.7
2022-12-05T12:40:23.278Z,2.3
2022-12-05T12:42:24.668Z,2.6
2022-12-05T12:44:29.322Z,3.5
2022-12-05T12:46:30.742Z,1.3
2022-12-05T12:48:31.990Z,1.7
2022-12-05T12:50:34.845Z,1.7
2022-12-05T12:52:36.210Z,2.8
2022-12-05T12:55:01.652Z,2.5
2022-12-05T12:56:38.822Z,0.5
2022-12-05T12:58:43.504Z,3.1
2022-12-05T13:00:44.921Z,2.5
2022-12-05T13:02:46.297Z,0.5
2022-12-05T13:04:47.627Z,1.9
2022-12-05T13:06:48.935Z,1.6
2022-12-05T13:08:50.281Z,0.8
2022-12-05T13:10:51.602Z,3.4
2022-12-05T13:12:56.201Z,3.4
2022-12-05T13:14:57.847Z,2.6
2022-12-05T13:16:58.933Z,3
2022-12-05T13:19:00.174Z,3.5
2022-12-05T13:21:01.492Z,3.5
2022-12-05T13:23:07.749Z,3.1
2022-12-05T13:25:04.159Z,2.8
2022-12-05T13:31:11.450Z,3
2022-12-05T13:32:13.887Z,3.4
2022-12-05T13:34:15.073Z,2.3
2022-12-05T13:36:17.560Z,2.6
2022-12-05T13:38:17.728Z,1.4
2022-12-05T13:40:22.351Z,3.2
2022-12-05T13:42:23.673Z,2.8
2022-12-05T13:44:24.984Z,2.7
2022-12-05T13:46:26.443Z,1.6
2022-12-05T13:48:27.628Z,4.2
2022-12-05T13:50:28.973Z,2.4
2022-12-05T13:52:30.276Z,2.2
2022-12-05T13:54:35.028Z,2.3
2022-12-05T13:56:36.386Z,3.6
2022-12-05T13:58:37.802Z,2.9
2022-12-05T14:00:39.134Z,4.3
2022-12-05T14:04:41.785Z,3.1
2022-12-05T14:06:43.135Z,4.9
2022-12-05T14:14:51.739Z,1.8
2022-12-05T14:18:54.391Z,3.3
2022-12-05T14:20:55.731Z,3.4
2022-12-05T14:23:00.335Z,0.4
2022-12-05T14:25:01.654Z,2.4
2022-12-05T14:27:02.972Z,4.2
2022-12-05T14:28:05.303Z,3.2
2022-12-05T14:30:06.630Z,2.2
2022-12-05T14:32:07.916Z,2.3
2022-12-05T14:34:09.253Z,2.4
2022-12-05T14:36:13.891Z,3.7
2022-12-05T14:38:15.197Z,2.6
2022-12-05T14:40:16.512Z,2.8
2022-12-05T14:42:17.866Z,2.5
2022-12-05T14:44:19.180Z,2.4
2022-12-05T14:48:21.800Z,3.7
2022-12-05T14:52:27.756Z,4
2022-12-05T14:54:29.059Z,3
2022-12-05T14:56:30.384Z,3.4
2022-12-05T14:58:31.736Z,4
2022-12-05T15:00:33.140Z,4.2
2022-12-05T15:02:34.521Z,2.5
2022-12-05T15:04:39.253Z,3.4
2022-12-05T15:06:40.543Z,4.8
2022-12-05T15:08:41.864Z,3.2
2022-12-05T15:10:43.182Z,2
2022-12-05T15:12:44.517Z,3.2
2022-12-05T15:14:45.837Z,3.1
2022-12-05T15:16:47.167Z,3
2022-12-05T15:18:51.780Z,4.1
2022-12-05T15:20:53.115Z,2.7
2022-12-05T15:22:54.448Z,3.9
2022-12-05T15:25:21.521Z,3.3
2022-12-05T15:27:22.830Z,3.1
2022-12-05T15:29:24.170Z,3.1
2022-12-05T15:35:31.438Z,2.1
2022-12-05T15:37:32.781Z,3.2
2022-12-05T15:39:34.120Z,2.1
2022-12-05T15:41:35.473Z,4.5
2022-12-05T15:43:36.808Z,4.1
2022-12-05T15:45:41.544Z,4.4
2022-12-05T15:47:42.839Z,3.8
2022-12-05T15:51:45.511Z,2.4
2022-12-05T15:53:46.847Z,2.8
2022-12-05T15:57:49.504Z,2.3
2022-12-05T15:59:54.118Z,3.5
2022-12-05T16:01:55.531Z,3.7
2022-12-05T16:03:56.789Z,2.9
2022-12-05T16:05:58.125Z,1.6
2022-12-05T16:07:59.505Z,3.8
2022-12-05T16:10:01.105Z,3.6
2022-12-05T16:12:02.165Z,3.6
2022-12-05T16:14:06.746Z,2.4
2022-12-05T16:16:08.130Z,2.1
2022-12-05T16:18:09.375Z,1.1
2022-12-05T16:19:11.680Z,2
2022-12-05T16:21:13.056Z,3.4
2022-12-05T16:23:14.500Z,3.2
2022-12-05T16:25:15.807Z,2.9
2022-12-05T16:29:21.781Z,2.7
2022-12-05T16:31:23.283Z,2.3
2022-12-05T16:33:24.534Z,4.1
2022-12-05T16:35:25.824Z,3.3
2022-12-05T16:37:27.161Z,3.1
2022-12-05T16:39:28.496Z,2.3
2022-12-05T16:41:33.158Z,2.4
2022-12-05T16:43:34.463Z,3.1
2022-12-05T16:45:35.777Z,4.4
2022-12-05T16:49:44.448Z,2.6
2022-12-05T16:53:41.130Z,2.6
2022-12-05T16:57:47.129Z,3.9
2022-12-05T16:59:48.496Z,3.2
2022-12-05T17:03:51.250Z,3
2022-12-05T17:05:52.477Z,3.2
2022-12-05T17:07:53.895Z,3
2022-12-05T17:09:58.434Z,3.7
2022-12-05T17:11:59.758Z,3.5
2022-12-05T17:14:01.115Z,4.5
2022-12-05T17:15:03.413Z,3.6
2022-12-05T17:17:04.751Z,2.8
2022-12-05T17:21:07.431Z,4.5
2022-12-05T17:23:12.028Z,4
2022-12-05T17:25:13.396Z,3.4
2022-12-05T17:29:16.092Z,3.1
2022-12-05T17:31:17.652Z,3.5
2022-12-05T17:33:18.724Z,3.3
2022-12-05T17:35:20.046Z,4
2022-12-05T17:37:24.697Z,5.1
2022-12-05T17:39:28.562Z,3.6
2022-12-05T17:41:27.326Z,3
2022-12-05T17:43:28.655Z,4.8
2022-12-05T17:45:29.991Z,3.7
2022-12-05T17:47:31.379Z,4.3
2022-12-05T17:49:32.667Z,5.1
2022-12-05T17:51:58.488Z,5
2022-12-05T17:53:39.514Z,3.6
2022-12-05T17:55:40.847Z,3
2022-12-05T17:57:42.209Z,3.9
2022-12-05T17:59:43.511Z,2.9
2022-12-05T18:01:44.820Z,4.6
2022-12-05T18:03:46.184Z,5.2
2022-12-05T18:05:50.833Z,4.2
2022-12-05T18:07:52.310Z,5.1
2022-12-05T18:09:53.617Z,5
2022-12-05T18:10:55.923Z,4.7
2022-12-05T18:21:05.881Z,4.4
2022-12-05T18:23:07.175Z,3.3
2022-12-05T18:25:08.505Z,3.3
2022-12-05T18:27:09.887Z,4.2
2022-12-05T18:29:11.283Z,4.2
2022-12-05T18:31:12.671Z,1.7
2022-12-05T18:33:17.252Z,4.9
2022-12-05T18:35:18.593Z,3.8
2022-12-05T18:37:19.914Z,5
2022-12-05T18:39:21.245Z,5.1
2022-12-05T18:41:22.597Z,4.1
2022-12-05T18:43:25.580Z,3.9
2022-12-05T18:45:26.866Z,5.8
2022-12-05T18:47:31.600Z,5.2
2022-12-05T18:49:32.950Z,5.7
2022-12-05T18:51:34.342Z,4.8
2022-12-05T18:53:35.656Z,4.8
2022-12-05T18:56:20.060Z,4.1
2022-12-05T18:57:38.337Z,5.1
2022-12-05T19:08:04.053Z,4.1
2022-12-05T19:10:05.198Z,5.1
2022-12-05T19:12:06.541Z,4.2
2022-12-05T19:14:11.182Z,4.8
2022-12-05T19:16:12.545Z,3.5
2022-12-05T19:18:13.831Z,3.3
2022-12-05T19:22:16.513Z,4.5
2022-12-05T19:26:19.251Z,3.8
2022-12-05T19:28:23.894Z,5
2022-12-05T19:30:25.221Z,6.9
2022-12-05T19:32:26.555Z,4.4
2022-12-05T19:34:27.891Z,6
2022-12-05T19:36:29.212Z,5.6
2022-12-05T19:38:30.521Z,4.9
2022-12-05T19:40:31.824Z,4.1
2022-12-05T19:42:36.468Z,3.4
2022-12-05T19:44:37.788Z,3.9
2022-12-05T19:46:39.119Z,4.4
2022-12-05T19:48:40.525Z,4.7
2022-12-05T19:50:41.882Z,3.5
2022-12-05T19:52:43.204Z,5.4
2022-12-05T19:56:49.135Z,4.9
2022-12-05T19:58:50.463Z,5.4
2022-12-05T20:01:54.259Z,5
2022-12-05T20:03:55.457Z,6.1
2022-12-05T20:05:56.763Z,5.4
2022-12-05T20:07:58.153Z,4.3
2022-12-05T20:10:02.761Z,4.9
2022-12-05T20:12:04.064Z,5.7
2022-12-05T20:14:05.398Z,4.6
2022-12-05T20:16:06.710Z,4.7
2022-12-05T20:18:08.015Z,5.4
2022-12-05T20:20:09.339Z,5.2
2022-12-05T20:22:10.690Z,4.2
2022-12-05T20:24:15.334Z,6.2
2022-12-05T20:26:16.666Z,3.9
2022-12-05T20:28:17.975Z,5.5
2022-12-05T20:30:19.339Z,5
2022-12-05T20:32:20.663Z,6.1
2022-12-05T20:34:21.973Z,4.2
2022-12-05T20:36:23.322Z,5.6
2022-12-05T20:38:27.922Z,4.4
2022-12-05T20:40:29.247Z,3.4
2022-12-05T20:42:30.644Z,5.8
2022-12-05T20:44:31.911Z,4.4
2022-12-05T20:46:33.304Z,5.1
2022-12-05T20:48:34.576Z,4.1
2022-12-05T20:50:35.894Z,4
2022-12-05T20:52:46.452Z,5.6
2022-12-05T20:54:41.850Z,3.3
2022-12-05T20:56:43.167Z,4.1
2022-12-05T20:57:45.501Z,4.4
2022-12-05T20:59:46.836Z,5
2022-12-05T21:01:48.252Z,4.9
2022-12-05T21:03:49.490Z,2.5
2022-12-05T21:05:54.138Z,3.9
2022-12-05T21:07:55.521Z,5.5
2022-12-05T21:09:57.027Z,4.8
2022-12-05T21:11:58.227Z,5.2
2022-12-05T21:13:59.534Z,5.1
2022-12-05T21:16:00.925Z,3.9
2022-12-05T21:18:02.228Z,4.7
2022-12-05T21:20:06.879Z,4.8
2022-12-05T21:22:08.288Z,5.7
2022-12-05T21:24:09.592Z,5
2022-12-05T21:26:10.951Z,4.7
2022-12-05T21:28:12.283Z,5.6
2022-12-05T21:30:13.625Z,4.3
2022-12-05T21:32:15.026Z,4.7
2022-12-05T21:34:19.653Z,4.2
2022-12-05T21:36:20.949Z,4.4
2022-12-05T21:38:22.295Z,5.8
2022-12-05T21:40:23.627Z,5.2
2022-12-05T21:42:24.935Z,5.5
2022-12-05T21:44:26.274Z,3.8
2022-12-05T21:46:27.664Z,5
2022-12-05T21:48:32.221Z,3.2
2022-12-05T21:50:33.563Z,4.1
2022-12-05T21:52:34.923Z,4.1
2022-12-05T21:53:37.304Z,4.9
2022-12-05T21:55:38.657Z,4
2022-12-05T21:57:40.037Z,5.1
2022-12-05T21:59:41.365Z,3.2
2022-12-05T22:03:47.329Z,3.5
2022-12-05T22:05:48.669Z,3
2022-12-05T22:07:50.007Z,2.9
2022-12-05T22:09:51.292Z,3.2
2022-12-05T22:15:58.659Z,4.4
2022-12-05T22:17:59.922Z,3.9
2022-12-05T22:22:02.584Z,4.9
2022-12-05T22:24:03.926Z,3.9
2022-12-05T22:26:05.259Z,5.1
2022-12-05T22:28:06.580Z,3.8
2022-12-05T22:38:16.612Z,1
2022-12-05T22:40:17.928Z,3.3
2022-12-05T22:42:19.258Z,1.9
2022-12-05T22:44:23.893Z,3.9
2022-12-05T22:46:25.309Z,4.7
2022-12-05T22:48:26.561Z,3.5
2022-12-05T22:50:49.747Z,5.2
2022-12-05T22:52:51.135Z,2.8
2022-12-05T22:56:57.095Z,4.2
2022-12-05T22:58:58.442Z,5
2022-12-05T23:00:59.823Z,3.9
2022-12-05T23:03:01.250Z,3.2
2022-12-05T23:09:05.221Z,4.1
2022-12-05T23:11:09.848Z,5
2022-12-05T23:13:11.176Z,4.4
2022-12-05T23:15:12.517Z,4.3
2022-12-05T23:17:13.852Z,4.4
2022-12-05T23:19:15.182Z,5.7
2022-12-05T23:21:16.520Z,4.3
2022-12-05T23:23:17.869Z,4.6
2022-12-05T23:29:25.137Z,4.2
2022-12-05T23:31:26.640Z,6.2
2022-12-05T23:33:27.869Z,4.8
2022-12-05T23:35:29.233Z,5.2
2022-12-05T23:37:30.629Z,5.7
2022-12-05T23:41:36.695Z,4.9
2022-12-05T23:43:38.137Z,3.8
2022-12-05T23:44:40.438Z,4.3
2022-12-05T23:46:41.870Z,5.4
2022-12-05T23:48:43.087Z,3.4
2022-12-05T23:50:44.427Z,5
2022-12-05T23:52:49.156Z,4.9
2022-12-05T23:54:50.479Z,5.9
2022-12-05T23:56:51.799Z,3.7
2022-12-05T23:58:53.124Z,4.2
